Time;durP1;ratioP1;P1;durP2;ratioP2;P2;SDS_P1;SDS_P2;PMS_P1;PMS_P2;Temp;Humidity;BMP_temperature;BMP_pressure;BME280_temperature;BME280_humidity;BME280_pressure;Samples;Min_cycle;Max_cycle;Signal;HPM_P1;HPM_P2
2023/09/25 00:01:00;;;;;;;4.00;1.90;;;;;;;;;;5015595;28;20905;-54
2023/09/25 00:03:26;;;;;;;3.90;2.08;;;;;;;;;;5013282;28;20160;-53
2023/09/25 00:05:52;;;;;;;6.43;2.60;;;;;;;;;;5013756;28;20034;-55
2023/09/25 00:08:18;;;;;;;4.30;2.05;;;;;;;;;;5014114;28;20380;-53
2023/09/25 00:10:44;;;;;;;6.40;2.25;;;;;;;;;;4997860;28;20042;-53
2023/09/25 00:13:10;;;;;;;3.30;1.90;;;;;;;;;;5011291;28;20037;-47
2023/09/25 00:15:41;;;;;;;5.35;2.58;;;;;;;;;;5009398;28;20394;-52
2023/09/25 00:18:07;;;;;;;3.53;2.08;;;;;;;;;;5006675;28;20099;-47
2023/09/25 00:20:33;;;;;;;5.65;2.10;;;;;;;;;;5014316;28;20566;-51
2023/09/25 00:23:00;;;;;;;6.90;2.35;;;;;;;;;;5012487;28;20131;-49
2023/09/25 00:25:28;;;;;;;3.30;1.80;;;;;;;;;;5012272;28;20103;-50
2023/09/25 00:27:54;;;;;;;5.80;2.17;;;;;;;;;;4992159;28;20046;-50
2023/09/25 00:30:20;;;;;;;4.80;2.08;;;;;;;;;;4990349;28;20103;-50
2023/09/25 00:32:46;;;;;;;3.30;2.08;;;;;;;;;;4996495;28;21242;-51
2023/09/25 00:35:13;;;;;;;4.40;2.30;;;;;;;;;;4995136;28;20761;-49
2023/09/25 00:37:39;;;;;;;3.53;2.05;;;;;;;;;;4989624;28;21061;-49
2023/09/25 00:40:13;;;;;;;3.03;1.95;;;;;;;;;;4998277;28;20072;-51
2023/09/25 00:42:40;;;;;;;4.00;2.22;;;;;;;;;;5008367;28;21242;-48
2023/09/25 00:45:06;;;;;;;5.15;2.22;;;;;;;;;;5010366;28;20658;-52
2023/09/25 00:47:33;;;;;;;4.07;2.17;;;;;;;;;;5011081;28;20041;-50
2023/09/25 00:50:00;;;;;;;6.32;2.22;;;;;;;;;;5011036;28;20487;-47
2023/09/25 00:52:26;;;;;;;5.30;2.30;;;;;;;;;;5005661;28;20187;-51
2023/09/25 00:54:52;;;;;;;3.63;1.95;;;;;;;;;;4991127;28;20958;-50
2023/09/25 00:57:19;;;;;;;4.63;2.17;;;;;;;;;;5003619;28;20150;-49
2023/09/25 00:59:44;;;;;;;6.88;2.38;;;;;;;;;;5017054;28;20546;-48
2023/09/25 01:02:10;;;;;;;3.15;1.90;;;;;;;;;;5014547;28;20034;-48
2023/09/25 01:04:38;;;;;;;4.55;2.10;;;;;;;;;;5014553;28;20385;-49
2023/09/25 01:07:05;;;;;;;4.88;2.33;;;;;;;;;;5022325;28;20425;-49
2023/09/25 01:09:30;;;;;;;4.97;2.20;;;;;;;;;;5016612;28;20049;-52
2023/09/25 01:11:56;;;;;;;5.22;1.98;;;;;;;;;;5018355;28;20083;-51
2023/09/25 01:14:23;;;;;;;5.63;2.00;;;;;;;;;;4996576;28;20046;-49
2023/09/25 01:16:49;;;;;;;3.38;2.05;;;;;;;;;;5016606;28;20495;-49
2023/09/25 01:19:15;;;;;;;5.28;2.42;;;;;;;;;;5013849;28;20033;-52
2023/09/25 01:21:47;;;;;;;5.70;2.30;;;;;;;;;;5016358;28;20116;-51
2023/09/25 01:24:13;;;;;;;5.53;2.33;;;;;;;;;;5012923;28;20034;-54
2023/09/25 01:26:39;;;;;;;3.03;1.90;;;;;;;;;;5016063;28;20086;-54
2023/09/25 01:29:05;;;;;;;5.82;2.50;;;;;;;;;;5017806;28;20042;-52
2023/09/25 01:31:31;;;;;;;3.40;2.28;;;;;;;;;;5018494;28;20065;-54
2023/09/25 01:33:57;;;;;;;7.97;2.50;;;;;;;;;;5014053;28;20140;-53
2023/09/25 01:36:23;;;;;;;6.30;2.50;;;;;;;;;;5014197;28;20037;-53
2023/09/25 01:38:49;;;;;;;4.78;2.47;;;;;;;;;;5016377;28;20061;-54
2023/09/25 01:41:15;;;;;;;4.45;2.25;;;;;;;;;;5019742;28;20048;-52
2023/09/25 01:43:44;;;;;;;4.93;2.53;;;;;;;;;;5016529;28;20102;-52
2023/09/25 01:46:10;;;;;;;5.20;2.55;;;;;;;;;;5009267;28;20041;-51
2023/09/25 01:48:37;;;;;;;4.30;2.47;;;;;;;;;;5012603;28;20386;-53
2023/09/25 01:51:10;;;;;;;4.93;2.50;;;;;;;;;;5011668;28;20806;-49
2023/09/25 01:53:36;;;;;;;7.20;3.13;;;;;;;;;;5028574;28;20147;-52
2023/09/25 01:56:12;;;;;;;7.10;2.85;;;;;;;;;;5010499;28;20875;-52
2023/09/25 01:58:38;;;;;;;7.70;3.22;;;;;;;;;;5012406;28;20147;-53
2023/09/25 02:01:04;;;;;;;5.10;2.60;;;;;;;;;;5015164;28;20030;-52
2023/09/25 02:03:30;;;;;;;9.23;3.20;;;;;;;;;;5011390;28;20045;-54
2023/09/25 02:05:57;;;;;;;6.22;2.92;;;;;;;;;;5012225;28;20041;-55
2023/09/25 02:08:23;;;;;;;9.45;3.05;;;;;;;;;;5012197;28;20091;-53
2023/09/25 02:10:49;;;;;;;6.97;3.03;;;;;;;;;;5013293;28;20120;-52
2023/09/25 02:13:15;;;;;;;5.30;2.78;;;;;;;;;;5018991;28;20475;-52
2023/09/25 02:15:41;;;;;;;6.10;2.88;;;;;;;;;;5018295;28;20029;-51
2023/09/25 02:18:08;;;;;;;5.70;2.90;;;;;;;;;;5010423;28;20045;-54
2023/09/25 02:20:34;;;;;;;6.30;2.70;;;;;;;;;;5016162;28;20060;-51
2023/09/25 02:23:00;;;;;;;6.10;3.10;;;;;;;;;;5015173;28;20299;-54
2023/09/25 02:25:26;;;;;;;5.30;2.95;;;;;;;;;;5014094;28;20902;-53
2023/09/25 02:27:52;;;;;;;8.13;3.53;;;;;;;;;;5007268;28;20732;-54
2023/09/25 02:30:18;;;;;;;5.88;2.90;;;;;;;;;;5018791;28;20068;-53
2023/09/25 02:32:45;;;;;;;4.65;2.60;;;;;;;;;;5013317;28;20289;-53
2023/09/25 02:35:11;;;;;;;5.00;3.25;;;;;;;;;;5011542;28;20088;-54
2023/09/25 02:37:37;;;;;;;4.93;2.90;;;;;;;;;;5014957;28;20752;-55
2023/09/25 02:40:07;;;;;;;6.28;3.13;;;;;;;;;;5014967;28;20056;-55
2023/09/25 02:42:33;;;;;;;7.38;3.10;;;;;;;;;;5014838;28;20048;-51
2023/09/25 02:44:59;;;;;;;4.30;2.88;;;;;;;;;;5019245;28;20024;-47
2023/09/25 02:47:26;;;;;;;5.28;2.70;;;;;;;;;;5011778;28;20128;-51
2023/09/25 02:49:52;;;;;;;4.75;2.65;;;;;;;;;;5021901;28;20888;-49
2023/09/25 02:52:18;;;;;;;6.53;3.10;;;;;;;;;;5010292;28;20695;-51
2023/09/25 02:54:44;;;;;;;5.55;3.00;;;;;;;;;;5013410;28;20109;-49
2023/09/25 02:57:10;;;;;;;6.30;2.67;;;;;;;;;;5010944;28;20342;-52
2023/09/25 02:59:36;;;;;;;6.60;2.92;;;;;;;;;;5011312;28;20045;-52
2023/09/25 03:02:02;;;;;;;6.90;2.78;;;;;;;;;;5015067;28;20540;-50
2023/09/25 03:04:28;;;;;;;7.28;3.33;;;;;;;;;;5009398;28;20037;-51
2023/09/25 03:06:54;;;;;;;7.10;2.88;;;;;;;;;;5011453;28;20470;-49
2023/09/25 03:09:20;;;;;;;8.25;2.90;;;;;;;;;;5010810;28;20037;-47
2023/09/25 03:11:49;;;;;;;3.72;2.55;;;;;;;;;;5010677;28;20158;-50
2023/09/25 03:14:15;;;;;;;6.25;2.97;;;;;;;;;;5008960;28;20041;-53
2023/09/25 03:16:41;;;;;;;4.57;2.60;;;;;;;;;;5011421;28;20068;-50
2023/09/25 03:19:07;;;;;;;5.85;2.63;;;;;;;;;;5009990;28;20471;-54
2023/09/25 03:21:33;;;;;;;3.92;2.70;;;;;;;;;;5012863;28;20041;-54
2023/09/25 03:23:59;;;;;;;5.47;2.90;;;;;;;;;;5010436;28;20042;-49
2023/09/25 03:26:25;;;;;;;5.20;3.00;;;;;;;;;;5010618;28;20036;-48
2023/09/25 03:28:51;;;;;;;7.55;3.20;;;;;;;;;;5009579;28;20049;-51
2023/09/25 03:31:17;;;;;;;5.65;3.47;;;;;;;;;;4998487;28;20041;-49
2023/09/25 03:33:44;;;;;;;9.20;3.20;;;;;;;;;;4990993;28;20029;-47
2023/09/25 03:36:11;;;;;;;6.50;3.55;;;;;;;;;;4990701;28;20160;-48
2023/09/25 03:38:37;;;;;;;9.27;3.55;;;;;;;;;;4996865;28;20389;-51
2023/09/25 03:41:03;;;;;;;7.82;3.65;;;;;;;;;;4995731;28;20045;-53
2023/09/25 03:43:29;;;;;;;7.63;3.95;;;;;;;;;;4994577;28;20518;-50
2023/09/25 03:45:56;;;;;;;8.15;3.85;;;;;;;;;;4992823;28;20038;-53
2023/09/25 03:48:21;;;;;;;8.80;3.83;;;;;;;;;;4991607;28;23812;-48
2023/09/25 03:50:47;;;;;;;9.77;4.13;;;;;;;;;;5001858;28;20044;-50
2023/09/25 03:53:14;;;;;;;5.45;3.90;;;;;;;;;;4994564;28;20374;-49
2023/09/25 03:55:40;;;;;;;6.90;3.58;;;;;;;;;;4997097;28;20529;-48
2023/09/25 03:58:06;;;;;;;9.30;3.58;;;;;;;;;;4996573;28;20212;-49
2023/09/25 04:00:32;;;;;;;9.00;3.83;;;;;;;;;;4991912;28;20472;-48
2023/09/25 04:02:58;;;;;;;4.25;2.83;;;;;;;;;;5005762;28;20613;-48
2023/09/25 04:05:24;;;;;;;6.82;2.80;;;;;;;;;;5006998;28;20045;-48
2023/09/25 04:07:50;;;;;;;6.55;3.30;;;;;;;;;;5008097;28;20091;-52
2023/09/25 04:10:17;;;;;;;8.52;3.15;;;;;;;;;;5009521;28;20034;-52
2023/09/25 04:12:43;;;;;;;5.70;2.92;;;;;;;;;;4997936;28;20034;-50
2023/09/25 04:15:16;;;;;;;6.30;3.00;;;;;;;;;;4992378;28;20038;-51
2023/09/25 04:17:42;;;;;;;4.47;2.45;;;;;;;;;;5003568;28;20099;-49
2023/09/25 04:20:15;;;;;;;4.65;2.60;;;;;;;;;;5008374;28;20707;-50
2023/09/25 04:22:41;;;;;;;4.07;1.90;;;;;;;;;;4991181;28;20099;-51
2023/09/25 04:25:08;;;;;;;9.15;3.25;;;;;;;;;;4983141;28;20868;-53
2023/09/25 04:27:35;;;;;;;4.93;2.47;;;;;;;;;;5011271;28;20029;-50
2023/09/25 04:30:02;;;;;;;6.15;2.47;;;;;;;;;;4999733;28;20502;-48
2023/09/25 04:32:28;;;;;;;6.10;2.78;;;;;;;;;;5009125;28;20095;-49
2023/09/25 04:34:54;;;;;;;7.80;2.50;;;;;;;;;;5015025;28;20046;-52
2023/09/25 04:37:20;;;;;;;5.93;2.60;;;;;;;;;;5011879;28;20028;-50
2023/09/25 04:39:47;;;;;;;5.28;2.65;;;;;;;;;;5012276;28;20037;-51
2023/09/25 04:42:12;;;;;;;6.30;2.47;;;;;;;;;;5010942;28;20420;-53
2023/09/25 04:44:40;;;;;;;3.35;2.50;;;;;;;;;;5014733;28;20034;-49
2023/09/25 04:47:06;;;;;;;3.65;2.55;;;;;;;;;;5013382;28;20543;-50
2023/09/25 04:49:32;;;;;;;6.20;2.75;;;;;;;;;;5013017;28;20049;-50
2023/09/25 04:51:58;;;;;;;5.10;2.65;;;;;;;;;;5014761;28;20546;-52
2023/09/25 04:54:24;;;;;;;6.38;2.53;;;;;;;;;;5019260;28;20063;-51
2023/09/25 04:56:50;;;;;;;5.32;2.47;;;;;;;;;;5015155;28;20041;-52
2023/09/25 04:59:16;;;;;;;4.07;2.30;;;;;;;;;;5016148;28;20033;-50
2023/09/25 05:01:42;;;;;;;4.90;2.38;;;;;;;;;;5007236;28;20523;-48
2023/09/25 05:04:09;;;;;;;4.30;2.60;;;;;;;;;;5026433;28;20045;-55
2023/09/25 05:06:35;;;;;;;7.10;2.90;;;;;;;;;;5025349;28;20090;-54
2023/09/25 05:09:01;;;;;;;9.20;2.78;;;;;;;;;;5024712;28;20045;-55
2023/09/25 05:11:27;;;;;;;4.82;2.70;;;;;;;;;;5024901;28;20038;-53
2023/09/25 05:13:53;;;;;;;3.75;2.15;;;;;;;;;;5023687;28;20046;-54
2023/09/25 05:16:19;;;;;;;4.75;2.42;;;;;;;;;;5023350;28;20516;-55
2023/09/25 05:18:45;;;;;;;6.25;2.58;;;;;;;;;;5023435;28;20043;-54
2023/09/25 05:21:11;;;;;;;5.07;2.72;;;;;;;;;;5009091;28;20175;-55
2023/09/25 05:23:37;;;;;;;8.95;2.40;;;;;;;;;;4994026;28;20030;-55
2023/09/25 05:26:03;;;;;;;4.60;2.60;;;;;;;;;;5004756;28;20381;-55
2023/09/25 05:28:29;;;;;;;5.00;2.65;;;;;;;;;;5008277;28;20044;-54
2023/09/25 05:30:56;;;;;;;5.60;2.55;;;;;;;;;;5009109;28;20034;-53
2023/09/25 05:33:22;;;;;;;5.72;2.50;;;;;;;;;;5005299;28;20045;-53
2023/09/25 05:35:48;;;;;;;6.45;3.00;;;;;;;;;;5011264;28;20460;-54
2023/09/25 05:38:14;;;;;;;4.95;2.60;;;;;;;;;;4999515;28;20363;-54
2023/09/25 05:40:41;;;;;;;7.50;3.45;;;;;;;;;;5017170;28;20388;-54
2023/09/25 05:43:06;;;;;;;9.02;2.85;;;;;;;;;;5020936;28;20037;-52
2023/09/25 05:45:33;;;;;;;7.93;2.92;;;;;;;;;;5004167;28;20032;-53
2023/09/25 05:47:58;;;;;;;6.47;3.00;;;;;;;;;;5005282;28;20041;-55
2023/09/25 05:50:28;;;;;;;6.55;2.70;;;;;;;;;;5007455;28;20497;-53
2023/09/25 05:52:54;;;;;;;6.80;2.88;;;;;;;;;;5003678;28;20054;-54
2023/09/25 05:55:21;;;;;;;5.65;2.53;;;;;;;;;;5002043;28;20563;-55
2023/09/25 05:57:47;;;;;;;5.40;2.78;;;;;;;;;;4999176;28;20038;-53
2023/09/25 06:00:18;;;;;;;7.38;2.53;;;;;;;;;;4989158;28;20116;-53
2023/09/25 06:02:44;;;;;;;5.30;2.70;;;;;;;;;;4994531;28;20034;-55
2023/09/25 06:05:14;;;;;;;9.45;2.70;;;;;;;;;;5023059;28;20103;-55
2023/09/25 06:07:40;;;;;;;11.23;3.60;;;;;;;;;;5007993;28;20045;-55
2023/09/25 06:10:07;;;;;;;10.20;2.65;;;;;;;;;;5014501;28;20041;-55
2023/09/25 06:12:33;;;;;;;6.32;2.83;;;;;;;;;;5025494;28;20832;-55
2023/09/25 06:14:59;;;;;;;15.95;2.95;;;;;;;;;;5022982;28;20029;-54
2023/09/25 06:17:26;;;;;;;5.97;2.70;;;;;;;;;;5021717;28;20745;-55
2023/09/25 06:19:53;;;;;;;6.40;2.80;;;;;;;;;;5001923;28;20210;-52
2023/09/25 06:22:21;;;;;;;157.10;87.90;;;;;;;;;;5017638;28;20034;-54
2023/09/25 06:24:48;;;;;;;7.80;4.00;;;;;;;;;;5005901;28;20245;-55
2023/09/25 06:27:14;;;;;;;7.20;3.28;;;;;;;;;;5016013;28;20482;-52
2023/09/25 06:29:40;;;;;;;6.38;2.70;;;;;;;;;;5023975;28;20021;-54
2023/09/25 06:32:05;;;;;;;6.65;2.80;;;;;;;;;;5010494;28;20694;-53
2023/09/25 06:34:32;;;;;;;5.05;2.55;;;;;;;;;;5012369;28;20030;-56
2023/09/25 06:36:58;;;;;;;5.68;2.80;;;;;;;;;;5004196;28;20049;-53
2023/09/25 06:39:24;;;;;;;5.20;2.65;;;;;;;;;;5008251;28;20034;-53
2023/09/25 06:41:50;;;;;;;15.10;3.90;;;;;;;;;;5005563;28;20029;-54
2023/09/25 06:44:16;;;;;;;5.32;2.88;;;;;;;;;;4991706;28;20100;-54
2023/09/25 06:46:43;;;;;;;9.15;2.90;;;;;;;;;;4994905;28;20045;-53
2023/09/25 06:49:09;;;;;;;6.80;3.05;;;;;;;;;;4990950;28;20052;-53
2023/09/25 06:51:35;;;;;;;3.85;2.60;;;;;;;;;;4992476;28;20041;-54
2023/09/25 06:54:01;;;;;;;4.85;2.70;;;;;;;;;;4991424;28;20041;-52
2023/09/25 06:56:27;;;;;;;3.25;2.35;;;;;;;;;;4992210;28;20037;-52
2023/09/25 06:58:53;;;;;;;4.38;2.50;;;;;;;;;;4995865;28;20042;-52
2023/09/25 07:01:21;;;;;;;9.85;3.15;;;;;;;;;;4987946;28;20506;-52
2023/09/25 07:03:47;;;;;;;9.15;2.97;;;;;;;;;;4991257;28;20157;-53
2023/09/25 07:06:13;;;;;;;9.93;2.75;;;;;;;;;;4992856;28;20121;-55
2023/09/25 07:08:39;;;;;;;8.05;2.72;;;;;;;;;;4994216;28;20463;-54
2023/09/25 07:11:05;;;;;;;8.60;2.70;;;;;;;;;;4992442;28;20042;-53
2023/09/25 07:13:32;;;;;;;5.85;2.47;;;;;;;;;;5003517;28;20044;-52
2023/09/25 07:16:10;;;;;;;7.90;2.72;;;;;;;;;;4992120;28;20643;-53
2023/09/25 07:18:37;;;;;;;6.22;2.60;;;;;;;;;;5016079;28;20041;-53
2023/09/25 07:21:03;;;;;;;4.88;2.17;;;;;;;;;;5018763;28;20664;-55
2023/09/25 07:23:31;;;;;;;7.38;2.45;;;;;;;;;;5014067;28;20155;-49
2023/09/25 07:26:01;;;;;;;4.78;2.15;;;;;;;;;;5011930;28;20045;-50
2023/09/25 07:28:28;;;;;;;5.65;2.67;;;;;;;;;;4997484;28;20516;-52
2023/09/25 07:30:54;;;;;;;4.07;2.33;;;;;;;;;;4992904;28;20038;-52
2023/09/25 07:33:20;;;;;;;7.05;2.50;;;;;;;;;;4996496;28;20057;-49
2023/09/25 07:35:46;;;;;;;6.43;2.70;;;;;;;;;;4992039;28;20437;-48
2023/09/25 07:38:12;;;;;;;5.53;2.22;;;;;;;;;;4990892;28;20050;-49
2023/09/25 07:40:38;;;;;;;8.02;5.03;;;;;;;;;;4989851;28;20072;-51
2023/09/25 07:43:04;;;;;;;48.10;29.88;;;;;;;;;;5001563;28;20402;-51
2023/09/25 07:45:32;;;;;;;7.00;2.88;;;;;;;;;;5013517;28;20037;-49
2023/09/25 07:47:59;;;;;;;5.18;2.75;;;;;;;;;;5019804;28;20116;-52
2023/09/25 07:50:25;;;;;;;5.90;2.33;;;;;;;;;;5025210;28;20079;-50
2023/09/25 07:52:54;;;;;;;6.60;2.72;;;;;;;;;;5022876;28;20069;-49
2023/09/25 07:55:21;;;;;;;5.72;2.35;;;;;;;;;;5022306;28;20057;-49
2023/09/25 07:57:48;;;;;;;7.07;2.80;;;;;;;;;;5010989;28;20377;-51
2023/09/25 08:00:34;;;;;;;4.50;2.80;;;;;;;;;;5008397;28;20044;-49
2023/09/25 08:03:00;;;;;;;10.25;2.75;;;;;;;;;;5005700;28;20143;-53
2023/09/25 08:05:28;;;;;;;14.30;3.53;;;;;;;;;;5011871;28;20059;-47
2023/09/25 08:07:54;;;;;;;8.73;3.42;;;;;;;;;;5011377;28;20119;-49
2023/09/25 08:10:20;;;;;;;7.47;2.75;;;;;;;;;;5014201;28;20748;-50
2023/09/25 08:12:47;;;;;;;6.72;2.92;;;;;;;;;;5009958;28;20029;-48
2023/09/25 08:15:13;;;;;;;7.85;3.13;;;;;;;;;;5011128;28;20034;-53
2023/09/25 08:17:42;;;;;;;9.90;3.20;;;;;;;;;;5012052;28;20044;-50
2023/09/25 08:20:20;;;;;;;15.45;4.63;;;;;;;;;;5015084;28;20774;-52
2023/09/25 08:22:46;;;;;;;11.57;3.50;;;;;;;;;;5013538;28;20037;-49
2023/09/25 08:25:12;;;;;;;10.25;3.15;;;;;;;;;;5009907;28;20516;-52
2023/09/25 08:27:39;;;;;;;7.88;3.28;;;;;;;;;;4998109;28;20044;-49
2023/09/25 08:30:05;;;;;;;7.93;3.50;;;;;;;;;;5009585;28;20029;-49
2023/09/25 08:32:31;;;;;;;7.22;2.75;;;;;;;;;;5009984;28;20033;-52
2023/09/25 08:34:58;;;;;;;9.52;3.70;;;;;;;;;;5012237;28;20396;-48
2023/09/25 08:37:24;;;;;;;8.68;3.33;;;;;;;;;;5010875;28;20045;-51
2023/09/25 08:39:51;;;;;;;7.13;3.08;;;;;;;;;;5014623;28;20026;-50
2023/09/25 08:42:18;;;;;;;6.40;3.22;;;;;;;;;;4998784;28;20042;-49
2023/09/25 08:44:44;;;;;;;9.73;4.28;;;;;;;;;;4993164;28;20037;-51
2023/09/25 08:47:10;;;;;;;10.18;3.63;;;;;;;;;;4990791;28;20679;-49
2023/09/25 08:49:37;;;;;;;9.13;3.35;;;;;;;;;;4999860;28;20045;-50
2023/09/25 08:52:03;;;;;;;4.80;3.20;;;;;;;;;;4997270;28;20604;-49
2023/09/25 08:54:29;;;;;;;8.02;3.75;;;;;;;;;;4995447;28;20662;-50
2023/09/25 08:56:55;;;;;;;7.57;3.80;;;;;;;;;;4991284;28;20137;-49
2023/09/25 08:59:24;;;;;;;9.07;3.60;;;;;;;;;;4994281;28;20254;-53
2023/09/25 09:01:51;;;;;;;10.70;3.65;;;;;;;;;;4989960;28;20703;-55
2023/09/25 09:04:17;;;;;;;8.57;3.80;;;;;;;;;;4990843;28;20069;-53
2023/09/25 09:06:43;;;;;;;7.38;3.65;;;;;;;;;;4992607;28;20224;-54
2023/09/25 09:09:09;;;;;;;8.88;4.07;;;;;;;;;;4989093;28;20049;-53
2023/09/25 09:11:36;;;;;;;7.30;3.47;;;;;;;;;;4991978;28;20065;-54
2023/09/25 09:14:02;;;;;;;9.18;3.72;;;;;;;;;;4988456;28;20042;-52
2023/09/25 09:16:28;;;;;;;7.72;3.38;;;;;;;;;;4989749;28;20045;-51
2023/09/25 09:19:07;;;;;;;10.57;3.72;;;;;;;;;;4984911;28;20089;-53
2023/09/25 09:21:33;;;;;;;8.13;3.50;;;;;;;;;;5003645;28;20057;-53
2023/09/25 09:23:59;;;;;;;9.75;3.50;;;;;;;;;;4991145;28;20309;-52
2023/09/25 09:26:26;;;;;;;9.07;3.40;;;;;;;;;;4989492;28;20042;-54
2023/09/25 09:28:55;;;;;;;10.60;3.20;;;;;;;;;;4995911;28;20041;-51
2023/09/25 09:31:21;;;;;;;7.10;3.22;;;;;;;;;;4998907;28;20037;-53
2023/09/25 09:33:48;;;;;;;9.40;3.42;;;;;;;;;;5010439;28;20032;-52
2023/09/25 09:36:14;;;;;;;7.85;3.30;;;;;;;;;;4997786;28;20152;-54
2023/09/25 09:38:41;;;;;;;7.88;3.42;;;;;;;;;;4989876;28;20231;-54
2023/09/25 09:41:07;;;;;;;7.10;3.30;;;;;;;;;;4990564;28;20034;-52
2023/09/25 09:43:33;;;;;;;8.13;3.28;;;;;;;;;;5005540;28;20053;-53
2023/09/25 09:46:03;;;;;;;6.00;2.90;;;;;;;;;;4998965;28;20343;-53
2023/09/25 09:48:30;;;;;;;10.60;3.28;;;;;;;;;;4993668;28;20136;-54
2023/09/25 09:50:59;;;;;;;6.97;3.13;;;;;;;;;;4995628;28;20120;-51
2023/09/25 09:53:28;;;;;;;8.45;2.90;;;;;;;;;;4991167;28;20077;-54
2023/09/25 09:55:54;;;;;;;7.03;2.83;;;;;;;;;;4994346;28;20034;-54
2023/09/25 09:58:20;;;;;;;7.10;2.70;;;;;;;;;;4994230;28;20092;-53
2023/09/25 10:00:46;;;;;;;7.82;2.80;;;;;;;;;;4994321;28;20176;-53
2023/09/25 10:03:13;;;;;;;7.00;2.95;;;;;;;;;;4992693;28;20642;-54
2023/09/25 10:05:48;;;;;;;7.00;3.00;;;;;;;;;;4991431;28;20278;-54
2023/09/25 10:08:15;;;;;;;4.97;2.63;;;;;;;;;;4988995;28;20045;-54
2023/09/25 10:10:43;;;;;;;6.28;2.75;;;;;;;;;;4992887;28;20132;-52
2023/09/25 10:13:15;;;;;;;6.03;2.72;;;;;;;;;;4988569;28;20030;-52
2023/09/25 10:15:50;;;;;;;9.50;2.90;;;;;;;;;;5019791;28;20853;-55
2023/09/25 10:18:16;;;;;;;10.80;2.92;;;;;;;;;;4990916;28;20700;-55
2023/09/25 10:20:45;;;;;;;5.13;2.50;;;;;;;;;;4993436;28;20042;-54
2023/09/25 10:23:17;;;;;;;9.70;2.85;;;;;;;;;;4997625;28;20040;-52
2023/09/25 10:25:50;;;;;;;5.68;2.65;;;;;;;;;;5016040;28;20037;-55
2023/09/25 10:28:27;;;;;;;5.90;2.72;;;;;;;;;;5015535;28;20046;-55
2023/09/25 10:30:57;;;;;;;6.00;2.53;;;;;;;;;;5007147;28;20128;-54
2023/09/25 10:33:23;;;;;;;5.88;2.97;;;;;;;;;;5011629;28;20969;-55
2023/09/25 10:35:50;;;;;;;15.05;8.98;;;;;;;;;;5004859;28;20030;-56
2023/09/25 10:38:21;;;;;;;7.30;3.13;;;;;;;;;;5003051;28;20124;-55
2023/09/25 10:40:51;;;;;;;5.55;2.53;;;;;;;;;;5019156;28;20133;-59
2023/09/25 10:43:18;;;;;;;6.75;2.30;;;;;;;;;;5019976;28;20044;-54
2023/09/25 10:45:45;;;;;;;6.40;2.60;;;;;;;;;;5023788;28;20033;-54
2023/09/25 10:48:11;;;;;;;6.85;2.30;;;;;;;;;;5019937;28;20116;-54
2023/09/25 10:50:37;;;;;;;5.82;2.38;;;;;;;;;;5019751;28;20029;-52
2023/09/25 10:53:04;;;;;;;6.65;2.60;;;;;;;;;;5008611;28;20037;-47
2023/09/25 10:55:32;;;;;;;4.35;1.95;;;;;;;;;;4994924;28;21018;-49
2023/09/25 10:57:58;;;;;;;6.70;2.80;;;;;;;;;;5011237;28;20091;-49
2023/09/25 11:00:24;;;;;;;8.02;2.60;;;;;;;;;;5008998;28;20041;-53
2023/09/25 11:02:51;;;;;;;5.28;2.22;;;;;;;;;;5011248;28;20045;-49
2023/09/25 11:05:17;;;;;;;7.57;2.35;;;;;;;;;;5010791;28;20817;-49
2023/09/25 11:07:43;;;;;;;4.95;2.15;;;;;;;;;;5007588;28;20758;-49
2023/09/25 11:10:13;;;;;;;9.50;2.00;;;;;;;;;;4992879;28;20038;-51
2023/09/25 11:12:40;;;;;;;5.97;2.33;;;;;;;;;;4992110;28;20022;-50
2023/09/25 11:15:10;;;;;;;7.45;2.00;;;;;;;;;;4992914;28;20072;-49
2023/09/25 11:17:37;;;;;;;4.45;2.10;;;;;;;;;;4993113;28;20709;-52
2023/09/25 11:20:18;;;;;;;4.20;1.92;;;;;;;;;;4995038;28;20328;-50
2023/09/25 11:22:44;;;;;;;7.10;3.08;;;;;;;;;;4982279;28;20382;-49
2023/09/25 11:25:11;;;;;;;18.33;8.30;;;;;;;;;;4997257;28;20037;-50
2023/09/25 11:27:38;;;;;;;5.35;2.30;;;;;;;;;;5002500;28;20394;-52
2023/09/25 11:30:11;;;;;;;4.40;2.20;;;;;;;;;;5002572;28;20080;-49
2023/09/25 11:32:39;;;;;;;6.63;2.17;;;;;;;;;;5003199;28;20502;-50
2023/09/25 11:35:05;;;;;;;8.52;2.65;;;;;;;;;;5011130;28;20052;-53
2023/09/25 11:37:31;;;;;;;3.60;2.20;;;;;;;;;;5021449;28;20656;-53
2023/09/25 11:39:57;;;;;;;5.20;2.28;;;;;;;;;;5014327;28;20068;-51
2023/09/25 11:42:24;;;;;;;6.03;2.03;;;;;;;;;;5003505;28;20870;-54
2023/09/25 11:44:50;;;;;;;6.15;2.30;;;;;;;;;;5011510;28;20029;-49
2023/09/25 11:47:16;;;;;;;7.05;2.40;;;;;;;;;;5011898;28;20637;-51
2023/09/25 11:49:42;;;;;;;8.23;2.50;;;;;;;;;;5012578;28;20074;-49
2023/09/25 11:52:07;;;;;;;7.70;2.50;;;;;;;;;;5009878;28;20080;-50
2023/09/25 11:54:33;;;;;;;6.38;2.33;;;;;;;;;;5014963;28;20032;-50
2023/09/25 11:56:59;;;;;;;12.80;2.22;;;;;;;;;;5011319;28;20033;-52
2023/09/25 11:59:26;;;;;;;4.97;1.95;;;;;;;;;;5011836;28;20095;-53
2023/09/25 12:01:53;;;;;;;9.95;2.40;;;;;;;;;;5009810;28;20056;-51
2023/09/25 12:04:19;;;;;;;7.05;2.13;;;;;;;;;;5010758;28;20061;-54
2023/09/25 12:06:47;;;;;;;3.72;2.10;;;;;;;;;;5011822;28;20068;-54
2023/09/25 12:09:13;;;;;;;3.22;2.08;;;;;;;;;;5013597;28;20034;-52
2023/09/25 12:11:39;;;;;;;5.47;2.30;;;;;;;;;;5011208;28;20452;-54
2023/09/25 12:14:05;;;;;;;8.75;2.33;;;;;;;;;;5011455;28;20041;-54
2023/09/25 12:16:33;;;;;;;4.07;2.22;;;;;;;;;;5010143;28;20286;-55
2023/09/25 12:18:59;;;;;;;5.40;1.98;;;;;;;;;;5011583;28;20048;-54
2023/09/25 12:21:25;;;;;;;4.47;1.80;;;;;;;;;;5007072;28;20046;-54
2023/09/25 12:23:51;;;;;;;5.60;2.00;;;;;;;;;;5013245;28;20037;-54
2023/09/25 12:26:17;;;;;;;5.10;1.90;;;;;;;;;;5009962;28;20069;-55
2023/09/25 12:28:43;;;;;;;4.82;2.00;;;;;;;;;;5009360;28;20049;-54
2023/09/25 12:31:09;;;;;;;3.97;1.75;;;;;;;;;;5011077;28;20060;-54
2023/09/25 12:33:35;;;;;;;4.60;2.10;;;;;;;;;;4996066;28;20320;-55
2023/09/25 12:36:02;;;;;;;10.65;2.38;;;;;;;;;;4991598;28;20054;-54
2023/09/25 12:38:29;;;;;;;4.45;1.80;;;;;;;;;;4998555;28;20037;-54
2023/09/25 12:40:55;;;;;;;4.15;1.90;;;;;;;;;;5008883;28;20038;-52
2023/09/25 12:43:21;;;;;;;3.90;1.73;;;;;;;;;;5006745;28;20067;-53
2023/09/25 12:45:47;;;;;;;3.30;1.80;;;;;;;;;;5003962;28;20038;-50
2023/09/25 12:48:13;;;;;;;2.80;1.70;;;;;;;;;;4989189;28;20160;-54
2023/09/25 12:50:39;;;;;;;6.80;2.10;;;;;;;;;;4992172;28;20026;-54
2023/09/25 12:53:05;;;;;;;5.13;1.70;;;;;;;;;;4988232;28;20269;-55
2023/09/25 12:55:34;;;;;;;4.75;1.73;;;;;;;;;;4993272;28;20488;-54
2023/09/25 12:58:00;;;;;;;3.35;1.70;;;;;;;;;;4998164;28;20107;-55
2023/09/25 13:00:26;;;;;;;3.70;1.70;;;;;;;;;;4998518;28;20503;-54
2023/09/25 13:02:52;;;;;;;4.00;1.65;;;;;;;;;;5012166;28;20033;-53
2023/09/25 13:05:19;;;;;;;4.97;1.70;;;;;;;;;;5016076;28;20045;-54
2023/09/25 13:07:45;;;;;;;5.65;1.80;;;;;;;;;;5011346;28;20041;-55
2023/09/25 13:10:12;;;;;;;4.65;1.75;;;;;;;;;;5012153;28;20044;-56
2023/09/25 13:12:41;;;;;;;6.45;1.90;;;;;;;;;;5013228;28;20489;-52
2023/09/25 13:15:08;;;;;;;6.88;1.90;;;;;;;;;;5010863;28;20984;-55
2023/09/25 13:17:34;;;;;;;3.90;1.70;;;;;;;;;;5011923;28;20029;-54
2023/09/25 13:20:03;;;;;;;3.05;1.63;;;;;;;;;;5022851;28;20545;-55
2023/09/25 13:22:29;;;;;;;5.07;1.90;;;;;;;;;;5022750;28;20044;-55
2023/09/25 13:24:55;;;;;;;3.08;1.65;;;;;;;;;;5026956;28;20087;-55
2023/09/25 13:27:21;;;;;;;6.68;1.65;;;;;;;;;;5029964;28;20624;-56
2023/09/25 13:29:47;;;;;;;3.08;1.58;;;;;;;;;;5031182;28;20037;-54
2023/09/25 13:32:13;;;;;;;5.22;1.95;;;;;;;;;;5024088;28;20037;-55
2023/09/25 13:34:40;;;;;;;4.13;1.90;;;;;;;;;;5025962;28;20057;-56
2023/09/25 13:37:07;;;;;;;5.63;1.83;;;;;;;;;;5027934;28;20030;-56
2023/09/25 13:39:33;;;;;;;3.70;1.70;;;;;;;;;;5024821;28;20519;-55
2023/09/25 13:41:59;;;;;;;4.40;1.77;;;;;;;;;;5025909;28;20041;-55
2023/09/25 13:44:26;;;;;;;4.88;1.80;;;;;;;;;;5021614;28;20055;-52
2023/09/25 13:46:54;;;;;;;5.10;2.13;;;;;;;;;;5020792;28;20041;-51
2023/09/25 13:49:21;;;;;;;4.93;2.03;;;;;;;;;;5018115;28;20033;-51
2023/09/25 13:51:47;;;;;;;2.80;1.52;;;;;;;;;;5017544;28;20145;-52
2023/09/25 13:54:13;;;;;;;4.40;1.90;;;;;;;;;;5014327;28;20569;-54
2023/09/25 13:56:40;;;;;;;4.07;1.70;;;;;;;;;;5011175;28;20041;-54
2023/09/25 13:59:06;;;;;;;3.63;1.80;;;;;;;;;;5012860;28;20781;-56
2023/09/25 14:01:32;;;;;;;3.40;1.70;;;;;;;;;;4988014;28;20038;-56
2023/09/25 14:03:58;;;;;;;2.88;1.50;;;;;;;;;;4988674;28;20096;-54
2023/09/25 14:06:24;;;;;;;4.63;1.70;;;;;;;;;;5003006;28;20046;-54
2023/09/25 14:08:50;;;;;;;2.83;1.60;;;;;;;;;;4997900;28;20052;-56
2023/09/25 14:11:17;;;;;;;91.30;62.88;;;;;;;;;;4988017;28;20033;-52
2023/09/25 14:13:43;;;;;;;17.88;12.13;;;;;;;;;;5003197;28;20412;-54
2023/09/25 14:16:10;;;;;;;5.20;2.95;;;;;;;;;;5005915;28;20036;-54
2023/09/25 14:18:36;;;;;;;6.88;2.63;;;;;;;;;;5003342;28;20076;-54
2023/09/25 14:21:02;;;;;;;3.50;2.00;;;;;;;;;;5005235;28;20076;-53
2023/09/25 14:23:28;;;;;;;3.60;1.92;;;;;;;;;;5005179;28;20052;-54
2023/09/25 14:25:54;;;;;;;3.35;1.90;;;;;;;;;;5002824;28;20153;-52
2023/09/25 14:28:20;;;;;;;5.35;1.92;;;;;;;;;;4991394;28;20087;-55
2023/09/25 14:30:47;;;;;;;3.28;1.80;;;;;;;;;;4993083;28;20355;-55
2023/09/25 14:33:13;;;;;;;4.57;2.00;;;;;;;;;;4993746;28;20037;-55
2023/09/25 14:35:40;;;;;;;4.50;2.05;;;;;;;;;;5007037;28;20480;-54
2023/09/25 14:38:06;;;;;;;4.85;2.00;;;;;;;;;;5012664;28;20057;-54
2023/09/25 14:40:33;;;;;;;2.83;1.88;;;;;;;;;;5012146;28;20121;-54